Historyczne dane pomiarowe

Dodano dane terminowe – wersja testowa.

Dane z okresu 1951-2019

Wersja bazy: 1.34 [2019-03-16, lista zmian], aktualizacja planowana na 2019-04-15

Dane meteo z obszaru Polski uzyskane na podstawie danych udostępnionych przez Instytut Meteorologii i Gospodarki Wodnej – Państwowy Instytut Badawczy.

 

Wybierz Datę:    

       

TemperaturaWilgotnośćZachmurzenieWiatrCiśnienieWidzialnośćZjawiska
 Data    tng td wb rh cc ccl cl cm ch dir g1 g2 mslp ppp      
1999-08-12 00:00:00 16.2--- 15.4 15.795wxwxwx3wx--1009.7 987.8 0.0---wx
1999-08-12 01:00:00 16.2--- 15.4 15.795wxwxwx3wx--1009.7 987.8----wx
1999-08-12 02:00:00 16.2--- 15.4 15.795wxwxwx3wx--1009.7 987.8----wx
1999-08-12 03:00:00 15.8--- 15.2 15.496wxwxwx2wx--1010.0 988.1----wxw1
1999-08-12 04:00:00 15.5--- 14.8 15.196wxwxwx3wx--1010.1 988.2----wx
1999-08-12 05:00:00 15.0--- 14.3 14.696wxwxwx4wx--1010.6 988.6----wx
1999-08-12 06:00:00 15.3--- 14.8 15.097wxwxwx4wx--1010.6 988.6 0.2---wxw1
1999-08-12 07:00:00 15.6--- 14.3 14.892wxwxwx4wx--1010.5 988.6----wx
1999-08-12 08:00:00 16.6--- 14.3 15.286wxwxwx3wx--1011.1 989.2----wx
1999-08-12 09:00:00 17.8--- 14.6 15.881wxwxwx3wx--1011.2 989.4----wx
1999-08-12 10:00:00 19.0--- 14.8 16.477wxwxwx3wx--1011.2 989.5----wx
1999-08-12 11:00:00 20.0--- 15.2 17.074wxwxwx4wx--1010.8 989.2----wx
1999-08-12 12:00:00 21.6--- 14.2 17.063wxwxwx4wx--1010.6 989.1 0.0---wx
1999-08-12 13:00:00 21.0--- 13.1 16.261wxwxwx4wx--1010.4 988.9----wx
1999-08-12 14:00:00 22.2--- 11.9 16.052wxwxwx5wx--1010.6 989.1----wx
1999-08-12 15:00:00 21.8--- 10.5 15.249wxwxwxwx5wx--1010.6 989.1----wx
1999-08-12 16:00:00 21.6--- 11.1 15.451wxwxwxwx5wx--1010.3 988.8----wx
1999-08-12 17:00:00 20.8--- 10.9 15.053wxwxwxwx3wx--1010.4 988.8----wx
1999-08-12 18:00:00 19.4--- 11.2 14.659wxwxwxwx2wx--1010.7 989.0 0.0---wx
1999-08-12 19:00:00 17.4--- 13.1 14.876wxwxwx1wx--1010.9 989.1----wx
1999-08-12 20:00:00 16.1--- 13.4 14.584wxwxwx0wx--1011.0 989.1----wx
1999-08-12 21:00:00 14.2--- 12.5 13.289wxwx0wx--1011.0 988.9----wx
1999-08-12 22:00:00 13.6--- 12.2 12.891wxwx0wx--1011.2 989.1----wx
1999-08-12 23:00:00 13.1--- 11.9 12.492wxwx1wx--1011.3 989.1----wx

 

Źródłem pochodzenia danych jest Instytut Meteorologii i Gospodarki Wodnej – Państwowy Instytut Badawczy. Dane Instytutu Meteorologii i Gospodarki Wodnej – Państwowego Instytutu Badawczego zostały przetworzone.

Dane źródłowe można odnaleźć na stronie https://dane.imgw.pl